Portada
METAR-TAF:

METAR-TAF

Aeroports :

Tinian, Illes Mariannes, Estats Units d'Amèrica

latitud: 14-59N, longitud: 145-37E, altitud: 82 m

Observació

L'informe es va fer fa 59 minuts, a les 04:50 UTC
Vent 15 kt del Est amb ràfegues de 22 kt
Temperatura 28°C
Humitat 66%
Pressió 1013 hPa
Visibilitat: 11.3 km
Núvols disperses a una alçada de 1600 ft

METAR: PGWT 200450Z 09015G22KT 7SM SCT016 28/21 A2991

Hora: 15:49 (05:49 UTC)

Pronòstic

L'informe es va fer fa 24 minuts, a les 05:25 UTC
Pronòstic vàlid del 20 a les 06 UTC al 21 a les 06 UTC
Vent 13 kt del Est/Nord-Est amb ràfegues de 23 kt
Visibilitat: 10 km
Núvols disperses a una alçada de 1600 ft
Núvols disperses a una alçada de 5000 ft
A partir de les 20 a les 0900 UTC
Vent 10 kt del Est/Nord-Est
Visibilitat: 10 km
Núvols disperses a una alçada de 1500 ft
Núvols disperses a una alçada de 5000 ft
xàfecs en les proximitats

TAF: PGWT 200525Z 2006/2106 07013G23KT P6SM SCT016 SCT050 FM200900 07010KT P6SM VCSH SCT015 SCT050

Observacions i pronòstics meteorològics de més de 4000 aeroports (METAR i TAF).

Les estacions disponibles són els punts grocs i vermells al mapa.

Posi el ratolí al punt desitjat per veure el nom de l'estació.

Feu clic per veure les observacions i els pronòstics meteorològics.

Per canviar el mapa: feu clic els botons verds amb una creu de color negre per apropar; al botó verd amb un guió per allunyar la imatge; o en les fletxes verdes per a mapes adjacents.


METAR-TAF: